createdAt,value
2019-02-26T00:02:02.548Z,75.45
2019-02-26T00:04:36.901Z,75.49
2019-02-26T00:07:14.257Z,75.24
2019-02-26T00:09:45.152Z,74.84
2019-02-26T00:12:59.276Z,74.46
2019-02-26T00:19:02.690Z,74.49
2019-02-26T00:21:38.344Z,74.35
2019-02-26T00:24:14.516Z,74.93
2019-02-26T01:05:12.952Z,77.07
2019-02-26T01:07:51.476Z,77.20
2019-02-26T01:10:23.765Z,77.29
2019-02-26T01:37:36.518Z,76.02
2019-02-26T01:40:29.890Z,76.16
2019-02-26T01:43:05.636Z,76.18
2019-02-26T01:45:40.651Z,76.14
2019-02-26T01:48:18.048Z,76.31
2019-02-26T01:50:59.157Z,75.98
2019-02-26T01:53:32.984Z,76.04
2019-02-26T01:56:06.185Z,76.13
2019-02-26T01:58:42.297Z,75.99
2019-02-26T02:01:21.397Z,75.80
2019-02-26T02:03:56.153Z,75.63
2019-02-26T02:06:32.567Z,75.13
2019-02-26T02:09:11.283Z,74.79
2019-02-26T02:11:46.628Z,74.64
2019-02-26T02:14:21.218Z,75.20
2019-02-26T02:16:53.790Z,75.40
2019-02-26T02:19:30.927Z,75.31
2019-02-26T02:22:05.846Z,75.31
2019-02-26T02:24:43.479Z,75.75
2019-02-26T05:29:28.748Z,78.03
2019-02-26T05:32:03.602Z,78.78
2019-02-26T05:34:43.434Z,79.18
2019-02-26T05:37:15.646Z,79.57
2019-02-26T05:39:54.422Z,79.72
2019-02-26T05:42:48.621Z,79.94
2019-02-26T05:45:23.735Z,80.14
2019-02-26T05:48:04.965Z,80.16
2019-02-26T05:50:42.156Z,79.97
2019-02-26T05:53:15.385Z,79.59
2019-02-26T05:56:20.687Z,79.08
2019-02-26T05:59:24.988Z,78.78
2019-02-26T06:02:00.110Z,78.59
2019-02-26T06:04:35.697Z,78.48
2019-02-26T06:07:24.113Z,78.53
2019-02-26T06:10:19.521Z,78.69
2019-02-26T06:13:04.997Z,78.87
2019-02-26T06:15:40.848Z,79.16
2019-02-26T06:18:14.892Z,78.91
2019-02-26T06:21:05.671Z,78.80
2019-02-26T06:23:56.933Z,78.84
2019-02-26T06:26:49.511Z,78.71
2019-02-26T06:29:24.733Z,78.59
2019-02-26T06:32:12.689Z,78.85
2019-02-26T06:34:46.447Z,78.89
2019-02-26T06:37:23.305Z,78.68
2019-02-26T06:39:59.396Z,78.62
2019-02-26T06:42:35.167Z,78.93
2019-02-26T06:45:21.396Z,79.25
2019-02-26T06:47:56.419Z,79.01
2019-02-26T06:50:32.224Z,78.96
2019-02-26T06:53:09.113Z,78.82
2019-02-26T06:55:43.191Z,78.68
2019-02-26T06:58:25.857Z,78.83
2019-02-26T07:01:00.615Z,78.87
2019-02-26T07:03:35.107Z,78.62
2019-02-26T07:06:10.449Z,78.19
2019-02-26T07:09:02.174Z,77.79
2019-02-26T07:11:49.325Z,78.02
2019-02-26T07:14:41.554Z,78.22
2019-02-26T07:17:15.068Z,78.48
2019-02-26T07:19:51.233Z,78.47
2019-02-26T07:22:47.179Z,78.43
2019-02-26T07:25:22.323Z,78.27
2019-02-26T07:27:58.061Z,78.12
2019-02-26T07:30:44.720Z,78.22
2019-02-26T07:33:30.589Z,78.62
2019-02-26T07:36:04.793Z,78.83
2019-02-26T07:38:41.539Z,78.78
2019-02-26T07:41:14.669Z,78.48
2019-02-26T07:43:49.300Z,78.46
2019-02-26T07:46:24.165Z,78.74
2019-02-26T07:48:59.899Z,78.74
2019-02-26T07:51:36.243Z,78.65
2019-02-26T07:54:09.416Z,78.63
2019-02-26T07:56:43.367Z,78.81
2019-02-26T07:59:27.276Z,79.06
2019-02-26T08:01:53.729Z,79.12
2019-02-26T08:04:27.710Z,79.20
2019-02-26T08:07:19.154Z,78.89
2019-02-26T08:09:54.580Z,78.46
2019-02-26T08:12:40.901Z,78.05
2019-02-26T08:15:16.291Z,78.08
2019-02-26T08:17:55.237Z,78.14
2019-02-26T08:20:27.891Z,78.20
2019-02-26T08:23:01.486Z,78.00
2019-02-26T08:25:36.030Z,77.71
2019-02-26T08:28:10.072Z,77.35
2019-02-26T08:30:49.827Z,77.04
2019-02-26T08:33:24.815Z,76.74
2019-02-26T08:35:58.872Z,76.48
2019-02-26T08:38:33.047Z,76.43
2019-02-26T08:41:06.849Z,76.36
2019-02-26T08:43:44.157Z,75.87
2019-02-26T08:46:18.955Z,75.19
2019-02-26T08:48:53.275Z,74.85
2019-02-26T08:51:34.258Z,74.62
2019-02-26T08:54:26.167Z,73.84
2019-02-26T08:57:18.225Z,73.36
2019-02-26T09:00:00.908Z,73.22
2019-02-26T09:02:41.870Z,72.32
2019-02-26T09:05:36.826Z,72.60
2019-02-26T09:08:18.536Z,72.87
2019-02-26T09:11:00.956Z,72.37
2019-02-26T09:13:53.119Z,71.84
2019-02-26T09:16:33.564Z,71.86
2019-02-26T09:19:14.397Z,71.75
2019-02-26T09:22:18.735Z,71.37
2019-02-26T09:24:59.923Z,70.68
2019-02-26T09:27:42.915Z,70.44
2019-02-26T09:30:40.783Z,69.92
2019-02-26T09:33:25.002Z,69.73
2019-02-26T09:36:05.871Z,69.36
2019-02-26T09:39:08.728Z,68.77
2019-02-26T09:41:50.979Z,67.70
2019-02-26T09:44:45.330Z,65.81
2019-02-26T09:47:33.482Z,65.49
2019-02-26T09:50:12.839Z,64.82
2019-02-26T09:52:58.738Z,64.97
2019-02-26T09:55:51.901Z,63.31
2019-02-26T09:58:31.844Z,62.57
2019-02-26T10:01:11.613Z,61.12
2019-02-26T10:03:54.178Z,61.56
2019-02-26T10:06:34.958Z,61.11
2019-02-26T10:09:16.246Z,60.46
2019-02-26T10:12:09.967Z,60.11
2019-02-26T10:15:07.958Z,59.43
2019-02-26T10:17:48.878Z,57.75
2019-02-26T10:20:31.398Z,57.55
2019-02-26T10:23:08.631Z,57.05
2019-02-26T10:26:05.769Z,56.96
2019-02-26T10:28:53.627Z,56.84
2019-02-26T10:31:40.995Z,55.88
2019-02-26T10:34:33.010Z,55.17
2019-02-26T10:37:14.615Z,54.36
2019-02-26T10:40:09.595Z,54.63
2019-02-26T10:42:48.902Z,54.16
2019-02-26T10:45:29.182Z,54.21
2019-02-26T10:48:22.765Z,52.69
2019-02-26T10:51:12.438Z,50.76
2019-02-26T10:54:08.934Z,50.34
2019-02-26T10:57:07.681Z,50.57
2019-02-26T10:59:46.174Z,51.39
2019-02-26T11:02:28.057Z,49.16
2019-02-26T11:05:28.608Z,49.61
2019-02-26T11:08:28.929Z,48.53
2019-02-26T11:11:09.830Z,49.67
2019-02-26T11:13:53.240Z,48.41
2019-02-26T11:16:31.008Z,48.95
2019-02-26T11:19:13.099Z,47.73
2019-02-26T11:21:55.990Z,46.12
2019-02-26T11:24:53.422Z,46.73
2019-02-26T11:38:12.352Z,43.90
2019-02-26T11:40:50.647Z,43.97
2019-02-26T11:43:30.243Z,44.13
2019-02-26T11:46:09.025Z,43.65
2019-02-26T11:48:50.134Z,43.98
2019-02-26T11:51:37.142Z,41.73
2019-02-26T11:54:15.021Z,41.65
2019-02-26T11:56:56.177Z,41.95
2019-02-26T11:59:38.598Z,41.57
2019-02-26T12:02:41.040Z,40.62
2019-02-26T12:05:36.679Z,40.59
2019-02-26T12:08:17.407Z,41.16
2019-02-26T12:11:12.671Z,40.54
2019-02-26T12:13:53.173Z,40.35
2019-02-26T12:16:33.216Z,39.83
2019-02-26T12:19:31.102Z,40.55
2019-02-26T12:22:10.176Z,40.39
2019-02-26T12:24:55.807Z,40.59
2019-02-26T12:27:32.643Z,39.85
2019-02-26T12:30:18.127Z,38.65
2019-02-26T12:33:12.354Z,38.68
2019-02-26T12:35:56.326Z,39.03
2019-02-26T12:38:59.202Z,39.37
2019-02-26T12:41:41.740Z,39.74
2019-02-26T12:44:22.664Z,39.93
2019-02-26T12:47:00.756Z,38.68
2019-02-26T12:49:53.393Z,38.37
2019-02-26T12:52:34.514Z,38.28
2019-02-26T12:55:35.871Z,38.93
2019-02-26T12:58:34.201Z,39.97
2019-02-26T13:01:14.845Z,38.52
2019-02-26T13:04:16.680Z,39.20
2019-02-26T13:07:09.300Z,37.90
2019-02-26T13:09:47.953Z,38.23
2019-02-26T13:12:38.440Z,37.27
2019-02-26T13:15:29.162Z,37.35
2019-02-26T13:18:09.292Z,37.32
2019-02-26T13:20:56.844Z,37.80
2019-02-26T13:23:30.607Z,38.07
2019-02-26T13:26:10.889Z,37.92
2019-02-26T13:29:00.337Z,37.36
2019-02-26T13:34:14.235Z,37.65
2019-02-26T13:37:04.408Z,38.08
2019-02-26T13:39:41.409Z,37.90
2019-02-26T13:42:19.134Z,35.94
2019-02-26T13:45:02.699Z,35.68
2019-02-26T13:47:36.940Z,36.18
2019-02-26T13:50:12.659Z,36.58
2019-02-26T13:52:58.551Z,36.70
2019-02-26T13:55:32.080Z,37.08
2019-02-26T13:58:17.532Z,36.44
2019-02-26T14:01:02.679Z,36.64
2019-02-26T14:03:47.435Z,35.26
2019-02-26T14:06:21.206Z,34.57
2019-02-26T14:08:55.789Z,35.38
2019-02-26T14:11:30.060Z,35.61
2019-02-26T14:14:03.826Z,35.61
2019-02-26T14:16:56.001Z,35.43
2019-02-26T14:19:41.154Z,35.87
2019-02-26T14:22:15.422Z,35.93
2019-02-26T14:25:05.613Z,35.84
2019-02-26T14:27:40.943Z,36.45
2019-02-26T14:30:13.324Z,36.45
2019-02-26T14:32:59.048Z,36.62
2019-02-26T14:35:32.537Z,37.57
2019-02-26T14:38:25.185Z,36.83
2019-02-26T14:41:00.074Z,36.81
2019-02-26T14:43:34.126Z,37.57
2019-02-26T14:46:06.339Z,35.82
2019-02-26T14:48:52.647Z,36.62
2019-02-26T14:51:37.860Z,36.05
2019-02-26T14:54:29.638Z,36.34
2019-02-26T14:57:03.594Z,36.22
2019-02-26T14:59:52.248Z,36.01
2019-02-26T15:03:13.640Z,35.89
2019-02-26T15:05:48.514Z,36.93
2019-02-26T15:08:22.998Z,37.84
2019-02-26T15:11:14.667Z,36.70
2019-02-26T15:14:01.050Z,36.82
2019-02-26T15:16:35.162Z,36.33
2019-02-26T15:19:08.727Z,35.94
2019-02-26T15:21:43.183Z,35.73
2019-02-26T15:24:33.813Z,35.20
2019-02-26T15:27:24.103Z,37.20
2019-02-26T15:30:14.405Z,35.93
2019-02-26T15:33:10.821Z,34.10
2019-02-26T15:35:55.100Z,34.82
2019-02-26T15:38:44.817Z,32.15
2019-02-26T15:41:34.233Z,33.50
2019-02-26T15:44:23.612Z,32.66
2019-02-26T15:47:13.109Z,32.36
2019-02-26T15:50:03.006Z,32.97
2019-02-26T15:52:53.708Z,33.29
2019-02-26T15:55:43.118Z,33.44
2019-02-26T15:58:34.146Z,34.98
2019-02-26T16:01:23.795Z,35.81
2019-02-26T16:03:58.044Z,34.84
2019-02-26T16:06:31.697Z,35.17
2019-02-26T16:09:07.011Z,35.52
2019-02-26T16:12:03.286Z,34.72
2019-02-26T16:14:41.557Z,36.08
2019-02-26T16:17:31.905Z,36.01
2019-02-26T16:20:10.017Z,36.22
2019-02-26T16:22:59.454Z,35.88
2019-02-26T16:25:38.283Z,37.50
2019-02-26T16:28:24.694Z,37.55
2019-02-26T16:31:10.367Z,37.76
2019-02-26T16:33:46.411Z,38.63
2019-02-26T16:36:20.538Z,38.63
2019-02-26T16:38:54.393Z,38.86
2019-02-26T16:41:27.960Z,39.45
2019-02-26T16:44:01.580Z,41.49
2019-02-26T16:46:37.000Z,42.17
2019-02-26T16:49:10.431Z,43.40
2019-02-26T16:51:43.585Z,43.91
2019-02-26T16:54:17.489Z,42.98
2019-02-26T16:56:55.236Z,43.54
2019-02-26T16:59:43.512Z,43.29
2019-02-26T17:02:16.988Z,42.77
2019-02-26T17:04:50.182Z,45.10
2019-02-26T17:07:23.870Z,45.16
2019-02-26T17:09:57.650Z,46.03
2019-02-26T17:12:31.723Z,46.34
2019-02-26T17:15:05.010Z,47.03
2019-02-26T17:17:38.090Z,47.71
2019-02-26T17:20:11.728Z,48.39
2019-02-26T17:22:45.306Z,47.46
2019-02-26T17:25:20.464Z,48.30
2019-02-26T17:27:55.601Z,49.41
2019-02-26T17:30:28.857Z,50.71
2019-02-26T17:33:00.708Z,51.29
2019-02-26T17:35:45.348Z,51.18
2019-02-26T17:38:19.523Z,51.53
2019-02-26T17:40:53.001Z,51.76
2019-02-26T17:43:26.547Z,51.99
2019-02-26T17:46:00.356Z,51.21
2019-02-26T17:48:43.695Z,52.00
2019-02-26T17:51:19.067Z,51.87
2019-02-26T17:53:52.514Z,52.65
2019-02-26T17:56:26.607Z,52.39
2019-02-26T17:59:18.578Z,53.36
2019-02-26T18:02:01.310Z,52.65
2019-02-26T18:04:44.111Z,53.76
2019-02-26T18:07:17.943Z,54.14
2019-02-26T18:09:51.078Z,54.67
2019-02-26T18:12:24.804Z,54.41
2019-02-26T18:14:57.464Z,54.95
2019-02-26T18:17:31.214Z,55.34
2019-02-26T18:20:17.365Z,55.49
2019-02-26T18:22:50.838Z,55.56
2019-02-26T18:25:24.695Z,55.15
2019-02-26T18:27:58.936Z,54.95
2019-02-26T18:30:41.087Z,55.46
2019-02-26T18:33:14.990Z,56.02
2019-02-26T18:35:59.297Z,57.38
2019-02-26T18:38:33.258Z,58.14
2019-02-26T18:41:15.998Z,58.46
2019-02-26T18:44:07.122Z,58.63
2019-02-26T18:46:41.053Z,58.76
2019-02-26T18:49:14.261Z,58.71
2019-02-26T18:51:49.757Z,58.67
2019-02-26T18:54:23.452Z,58.27
2019-02-26T18:56:56.644Z,58.37
2019-02-26T18:59:30.370Z,58.43
2019-02-26T19:02:04.515Z,58.74
2019-02-26T19:04:38.116Z,58.60
2019-02-26T19:07:11.642Z,58.77
2019-02-26T19:09:45.640Z,58.40
2019-02-26T20:24:33.459Z,64.70
2019-02-26T20:27:06.954Z,64.60
2019-02-26T20:29:40.398Z,64.46
2019-02-26T20:32:13.143Z,65.20
2019-02-26T21:17:46.206Z,67.22
2019-02-26T22:42:45.925Z,70.67
2019-02-26T22:45:22.190Z,70.57
2019-02-26T22:47:55.079Z,70.42
2019-02-26T22:50:28.896Z,70.34
2019-02-26T23:09:17.876Z,71.84
2019-02-26T23:11:52.196Z,71.76
2019-02-26T23:14:25.857Z,71.78
2019-02-26T23:16:58.717Z,71.99
2019-02-26T23:19:36.458Z,71.80
2019-02-26T23:22:08.563Z,71.73
2019-02-26T23:24:54.808Z,71.50
2019-02-26T23:27:28.704Z,71.73
2019-02-26T23:30:20.745Z,72.15
2019-02-26T23:33:15.016Z,72.77
2019-02-26T23:36:04.750Z,72.84
2019-02-26T23:38:37.264Z,73.21
